createdAt,value
2019-05-01T00:02:17.464Z,11.37
2019-05-01T00:05:11.710Z,11.60
2019-05-01T00:07:40.944Z,11.77
2019-05-01T00:10:10.589Z,12.87
2019-05-01T00:12:39.699Z,11.83
2019-05-01T00:15:09.703Z,12.27
2019-05-01T00:17:38.891Z,11.43
2019-05-01T00:20:08.074Z,11.87
2019-05-01T00:22:37.132Z,12.50
2019-05-01T00:25:06.397Z,11.83
2019-05-01T00:27:35.542Z,12.13
2019-05-01T00:30:06.879Z,12.10
2019-05-01T00:32:35.868Z,14.07
2019-05-01T00:35:05.834Z,13.60
2019-05-01T00:37:34.926Z,13.53
2019-05-01T00:40:04.320Z,13.30
2019-05-01T00:42:33.351Z,13.90
2019-05-01T00:45:02.504Z,13.60
2019-05-01T00:47:31.533Z,14.43
2019-05-01T00:50:00.663Z,14.00
2019-05-01T00:52:29.851Z,13.53
2019-05-01T00:55:17.101Z,14.23
2019-05-01T00:57:54.410Z,15.57
2019-05-01T01:00:43.475Z,14.17
2019-05-01T01:03:12.761Z,14.90
2019-05-01T01:05:41.835Z,13.90
2019-05-01T01:08:11.460Z,14.43
2019-05-01T01:10:40.569Z,16.07
2019-05-01T01:13:09.723Z,14.73
2019-05-01T01:15:38.880Z,15.20
2019-05-01T01:18:08.028Z,16.13
2019-05-01T01:20:37.187Z,15.67
2019-05-01T01:23:06.383Z,16.20
2019-05-01T01:25:35.554Z,15.50
2019-05-01T01:28:04.747Z,16.13
2019-05-01T01:30:34.051Z,15.47
2019-05-01T01:33:03.263Z,15.10
2019-05-01T01:35:32.503Z,16.60
2019-05-01T01:38:01.848Z,15.87
2019-05-01T01:40:31.843Z,15.60
2019-05-01T01:43:20.151Z,15.17
2019-05-01T01:45:50.938Z,16.40
2019-05-01T01:48:20.109Z,15.27
2019-05-01T01:50:49.804Z,17.27
2019-05-01T01:53:21.775Z,16.33
2019-05-01T01:55:51.692Z,15.47
2019-05-01T01:58:22.000Z,16.70
2019-05-01T02:01:09.896Z,16.50
2019-05-01T02:03:41.967Z,16.07
2019-05-01T02:06:11.467Z,17.50
2019-05-01T02:08:40.951Z,17.17
2019-05-01T02:11:10.119Z,17.17
2019-05-01T02:13:39.884Z,18.33
2019-05-01T02:16:09.090Z,17.77
2019-05-01T02:18:38.292Z,18.67
2019-05-01T02:21:07.425Z,18.83
2019-05-01T02:23:36.547Z,18.90
2019-05-01T02:26:07.111Z,20.00
2019-05-01T02:28:43.188Z,20.13
2019-05-01T02:31:28.078Z,20.93
2019-05-01T02:33:53.181Z,18.90
2019-05-01T02:36:23.542Z,21.50
2019-05-01T02:38:54.662Z,20.97
2019-05-01T02:41:27.446Z,21.40
2019-05-01T02:44:01.361Z,25.63
2019-05-01T02:46:32.202Z,22.70
2019-05-01T02:49:08.070Z,29.63
2019-05-01T02:51:39.276Z,27.50
2019-05-01T02:54:10.354Z,31.07
2019-05-01T02:56:52.581Z,28.53
2019-05-01T02:59:23.262Z,35.10
2019-05-01T03:01:52.754Z,30.93
2019-05-01T03:04:22.347Z,31.83
2019-05-01T03:06:51.985Z,36.80
2019-05-01T03:09:21.809Z,34.20
2019-05-01T03:11:53.953Z,34.70
2019-05-01T03:14:26.031Z,34.70
2019-05-01T03:16:59.252Z,40.70
2019-05-01T03:19:53.536Z,47.90
2019-05-01T03:22:38.998Z,52.80
2019-05-01T03:25:08.715Z,57.57
2019-05-01T03:27:37.860Z,54.20
2019-05-01T03:30:07.165Z,50.10
2019-05-01T03:32:36.539Z,49.53
2019-05-01T03:35:05.968Z,49.43
2019-05-01T03:37:35.417Z,51.43
2019-05-01T03:40:04.553Z,51.97
2019-05-01T03:42:33.759Z,49.87
2019-05-01T03:45:02.997Z,50.43
2019-05-01T03:47:32.231Z,55.00
2019-05-01T03:50:02.081Z,52.73
2019-05-01T03:52:31.567Z,58.60
2019-05-01T03:55:01.043Z,58.70
2019-05-01T03:57:30.377Z,58.73
2019-05-01T03:59:59.636Z,72.23
2019-05-01T04:02:39.366Z,82.37
2019-05-01T04:05:08.563Z,88.83
2019-05-01T04:07:38.493Z,72.33
2019-05-01T04:10:08.321Z,69.80
2019-05-01T04:12:37.806Z,65.20
2019-05-01T04:15:07.329Z,70.33
2019-05-01T04:17:45.433Z,64.17
2019-05-01T04:20:15.301Z,64.83
2019-05-01T04:22:45.058Z,68.57
2019-05-01T04:25:14.265Z,67.83
2019-05-01T04:27:46.011Z,64.57
2019-05-01T04:30:30.386Z,61.60
2019-05-01T04:33:02.169Z,60.57
2019-05-01T04:35:49.008Z,60.90
2019-05-01T04:38:18.561Z,52.60
2019-05-01T04:40:47.987Z,58.43
2019-05-01T04:43:17.414Z,52.73
2019-05-01T04:45:46.789Z,50.40
2019-05-01T04:48:15.890Z,53.20
2019-05-01T04:50:45.108Z,50.40
2019-05-01T04:53:14.638Z,48.93
2019-05-01T04:55:43.875Z,50.73
2019-05-01T04:58:13.654Z,48.10
2019-05-01T05:00:43.236Z,50.37
2019-05-01T05:03:16.879Z,49.97
2019-05-01T05:05:46.421Z,50.13
2019-05-01T05:08:16.263Z,48.00
2019-05-01T05:10:46.236Z,48.03
2019-05-01T05:13:23.663Z,51.77
2019-05-01T05:16:01.494Z,47.13
2019-05-01T05:18:40.239Z,52.40
2019-05-01T05:21:09.819Z,50.40
2019-05-01T05:23:39.092Z,49.17
2019-05-01T05:26:08.287Z,46.83
2019-05-01T05:28:38.944Z,50.20
2019-05-01T05:31:08.839Z,49.93
2019-05-01T05:33:39.732Z,49.80
2019-05-01T05:36:10.083Z,54.37
2019-05-01T05:39:06.419Z,49.20
2019-05-01T05:41:36.648Z,51.60
2019-05-01T05:44:05.815Z,53.63
2019-05-01T05:46:35.043Z,56.57
2019-05-01T05:49:05.113Z,58.13
2019-05-01T05:51:42.906Z,60.60
2019-05-01T05:54:31.438Z,57.50
2019-05-01T05:57:07.069Z,56.80
2019-05-01T05:59:40.711Z,61.03
2019-05-01T06:02:28.456Z,57.37
2019-05-01T06:05:20.801Z,59.77
2019-05-01T06:08:10.815Z,59.00
2019-05-01T06:11:00.178Z,58.10
2019-05-01T06:13:47.795Z,57.80
2019-05-01T06:16:25.327Z,59.50
2019-05-01T06:19:09.760Z,57.77
2019-05-01T06:21:48.622Z,55.60
2019-05-01T06:24:28.520Z,53.80
2019-05-01T06:26:58.037Z,57.20
2019-05-01T06:29:30.937Z,56.47
2019-05-01T06:31:59.811Z,56.70
2019-05-01T06:34:29.820Z,60.53
2019-05-01T06:36:59.551Z,65.80
2019-05-01T06:39:28.816Z,67.33
2019-05-01T06:41:58.547Z,64.07
2019-05-01T06:44:52.318Z,88.57
2019-05-01T06:47:52.264Z,57.83
2019-05-01T06:50:37.162Z,55.63
2019-05-01T06:53:06.065Z,53.33
2019-05-01T06:55:38.089Z,49.40
2019-05-01T06:58:07.651Z,45.40
2019-05-01T07:00:39.141Z,45.40
2019-05-01T07:03:10.513Z,46.70
2019-05-01T07:05:40.941Z,49.37
2019-05-01T07:08:23.769Z,40.27
2019-05-01T07:10:43.939Z,44.53
2019-05-01T07:13:12.377Z,46.40
2019-05-01T07:15:41.571Z,41.60
2019-05-01T07:18:11.799Z,44.50
2019-05-01T07:20:53.278Z,43.90
2019-05-01T07:23:24.484Z,40.90
2019-05-01T07:25:54.414Z,38.90
2019-05-01T07:28:28.895Z,41.20
2019-05-01T07:31:04.814Z,36.10
2019-05-01T07:33:33.095Z,40.93
2019-05-01T07:36:07.562Z,40.70
2019-05-01T07:38:38.201Z,38.37
2019-05-01T07:41:05.667Z,40.00
2019-05-01T07:44:01.024Z,40.47
2019-05-01T07:46:54.388Z,32.03
2019-05-01T07:49:32.172Z,37.90
2019-05-01T07:52:01.804Z,37.23
2019-05-01T07:54:31.178Z,36.43
2019-05-01T07:57:03.283Z,31.43
2019-05-01T07:59:31.216Z,28.23
2019-05-01T08:02:03.179Z,35.33
2019-05-01T08:04:36.548Z,32.00
2019-05-01T08:07:03.540Z,30.83
2019-05-01T08:09:32.754Z,34.83
2019-05-01T08:12:02.036Z,32.30
2019-05-01T08:14:31.462Z,34.10
2019-05-01T08:17:02.740Z,34.00
2019-05-01T08:19:47.247Z,34.07
2019-05-01T08:22:21.865Z,33.40
2019-05-01T08:24:53.851Z,33.33
2019-05-01T08:27:40.987Z,31.20
2019-05-01T08:30:24.075Z,40.33
2019-05-01T08:33:16.074Z,30.97
2019-05-01T08:35:46.017Z,33.43
2019-05-01T08:38:16.266Z,31.87
2019-05-01T08:40:45.442Z,31.53
2019-05-01T08:43:17.994Z,23.57
2019-05-01T08:45:59.830Z,30.53
2019-05-01T08:48:46.586Z,31.17
2019-05-01T08:51:16.398Z,33.17
2019-05-01T08:53:45.620Z,25.63
2019-05-01T08:56:17.127Z,29.90
2019-05-01T08:58:51.454Z,31.83
2019-05-01T09:01:20.796Z,28.07
2019-05-01T09:03:54.168Z,28.07
2019-05-01T09:06:34.057Z,29.00
2019-05-01T09:08:51.992Z,25.57
2019-05-01T09:11:21.091Z,34.97
2019-05-01T09:13:50.312Z,33.97
2019-05-01T09:16:23.369Z,34.60
2019-05-01T09:18:53.278Z,35.33
2019-05-01T09:21:22.561Z,35.87
2019-05-01T09:23:53.247Z,32.93
2019-05-01T09:26:40.383Z,33.80
2019-05-01T09:29:16.000Z,26.07
2019-05-01T09:31:44.426Z,19.97
2019-05-01T09:34:13.938Z,34.97
2019-05-01T09:36:44.483Z,33.53
2019-05-01T09:39:15.298Z,30.23
2019-05-01T09:41:47.594Z,32.57
2019-05-01T09:44:17.456Z,29.93
2019-05-01T09:46:46.631Z,34.23
2019-05-01T09:49:18.197Z,28.50
2019-05-01T09:51:56.207Z,33.07
2019-05-01T09:54:46.789Z,27.30
2019-05-01T09:57:15.065Z,35.83
2019-05-01T09:59:44.448Z,36.70
2019-05-01T10:02:14.696Z,34.60
2019-05-01T10:04:43.829Z,38.27
2019-05-01T10:07:13.080Z,37.10
2019-05-01T10:09:47.263Z,35.60
2019-05-01T10:12:16.052Z,36.27
2019-05-01T10:14:45.397Z,40.93
2019-05-01T10:17:14.507Z,36.77
2019-05-01T10:19:43.891Z,38.07
2019-05-01T10:22:16.235Z,35.00
2019-05-01T10:24:45.455Z,33.83
2019-05-01T10:27:17.400Z,20.73
2019-05-01T10:30:04.435Z,30.97
2019-05-01T10:32:42.943Z,34.00
2019-05-01T10:35:41.907Z,34.43
2019-05-01T10:38:04.693Z,32.30
2019-05-01T10:40:33.982Z,29.27
2019-05-01T10:43:02.799Z,23.10
2019-05-01T10:45:31.993Z,27.67
2019-05-01T10:48:01.166Z,24.10
2019-05-01T10:50:31.334Z,31.27
2019-05-01T10:53:00.358Z,25.70
2019-05-01T10:55:29.567Z,27.03
2019-05-01T10:57:58.716Z,30.60
2019-05-01T11:00:28.042Z,31.37
2019-05-01T11:02:57.233Z,27.43
2019-05-01T11:05:26.815Z,12.30
2019-05-01T11:07:55.963Z,23.60
2019-05-01T11:10:25.041Z,17.60
2019-05-01T11:12:54.078Z,15.00
2019-05-01T11:15:23.263Z,15.00
2019-05-01T11:17:54.788Z,17.37
2019-05-01T11:20:23.958Z,27.53
2019-05-01T11:22:53.248Z,23.73
2019-05-01T11:25:23.123Z,24.40
2019-05-01T11:27:52.296Z,25.90
2019-05-01T11:30:21.595Z,26.50
2019-05-01T11:33:02.837Z,27.50
2019-05-01T11:35:52.869Z,26.40
2019-05-01T11:38:40.208Z,29.07
2019-05-01T11:41:22.445Z,20.67
2019-05-01T11:43:51.719Z,28.57
2019-05-01T11:46:20.922Z,29.07
2019-05-01T11:48:50.444Z,23.57
2019-05-01T11:51:20.635Z,25.70
2019-05-01T11:53:49.766Z,25.30
2019-05-01T11:56:19.034Z,22.97
2019-05-01T11:58:48.131Z,25.67
2019-05-01T12:01:18.952Z,24.60
2019-05-01T12:03:48.137Z,25.80
2019-05-01T12:06:22.986Z,26.60
2019-05-01T12:08:48.253Z,29.60
2019-05-01T12:11:19.163Z,29.23
2019-05-01T12:13:49.813Z,31.30
2019-05-01T12:16:44.368Z,30.53
2019-05-01T12:19:13.672Z,31.40
2019-05-01T12:21:42.921Z,32.30
2019-05-01T12:24:12.074Z,29.70
2019-05-01T12:26:42.201Z,33.40
2019-05-01T12:29:11.391Z,34.50
2019-05-01T12:31:40.661Z,35.47
2019-05-01T12:34:09.946Z,34.20
2019-05-01T12:36:40.267Z,42.50
2019-05-01T12:39:13.198Z,36.33
2019-05-01T12:41:48.198Z,29.30
2019-05-01T12:44:17.459Z,34.60
2019-05-01T12:46:52.991Z,33.37
2019-05-01T12:49:22.187Z,28.80
2019-05-01T12:51:54.071Z,27.10
2019-05-01T12:54:30.912Z,34.30
2019-05-01T12:57:00.161Z,27.10
2019-05-01T12:59:29.348Z,34.40
2019-05-01T13:01:58.364Z,33.60
2019-05-01T13:04:27.550Z,33.53
2019-05-01T13:06:58.809Z,39.90
2019-05-01T13:09:28.297Z,27.70
2019-05-01T13:11:57.745Z,31.70
2019-05-01T13:14:27.259Z,23.30
2019-05-01T13:16:56.433Z,36.97
2019-05-01T13:19:25.596Z,35.70
2019-05-01T13:21:54.904Z,29.97
2019-05-01T13:24:24.036Z,30.83
2019-05-01T13:27:08.059Z,31.50
2019-05-01T13:29:51.862Z,27.87
2019-05-01T13:32:38.948Z,29.90
2019-05-01T13:35:08.520Z,24.60
2019-05-01T13:37:38.117Z,23.53
2019-05-01T13:40:08.917Z,26.70
2019-05-01T13:42:38.344Z,21.23
2019-05-01T13:45:07.977Z,18.40
2019-05-01T13:47:37.138Z,13.57
2019-05-01T13:50:06.975Z,16.90
2019-05-01T13:52:36.067Z,17.90
2019-05-01T13:55:05.558Z,17.40
2019-05-01T13:57:34.792Z,19.27
2019-05-01T14:00:04.471Z,20.87
2019-05-01T14:02:33.647Z,23.83
2019-05-01T14:05:02.846Z,23.07
2019-05-01T14:07:32.003Z,24.27
2019-05-01T14:10:01.135Z,24.93
2019-05-01T14:12:30.337Z,25.60
2019-05-01T14:14:59.507Z,24.00
2019-05-01T14:17:28.659Z,25.10
2019-05-01T14:20:03.957Z,25.13
2019-05-01T14:23:01.027Z,25.23
2019-05-01T14:25:49.205Z,24.50
2019-05-01T14:28:18.319Z,26.90
2019-05-01T14:30:48.400Z,24.97
2019-05-01T14:33:17.435Z,22.93
2019-05-01T14:35:46.651Z,23.37
2019-05-01T14:38:16.861Z,26.00
2019-05-01T14:40:46.206Z,23.37
2019-05-01T14:43:15.415Z,25.13
2019-05-01T14:45:44.603Z,22.07
2019-05-01T14:48:13.800Z,26.50
2019-05-01T14:50:43.068Z,24.93
2019-05-01T14:53:12.476Z,22.97
2019-05-01T14:55:41.672Z,22.53
2019-05-01T14:58:10.739Z,23.67
2019-05-01T15:00:39.951Z,22.83
2019-05-01T15:03:09.136Z,25.63
2019-05-01T15:05:38.268Z,22.53
2019-05-01T15:08:07.539Z,19.50
2019-05-01T15:10:37.738Z,24.27
2019-05-01T15:13:14.922Z,25.30
2019-05-01T15:15:55.540Z,22.60
2019-05-01T15:18:43.702Z,21.83
2019-05-01T15:21:12.863Z,20.20
2019-05-01T15:23:53.099Z,20.00
2019-05-01T15:26:12.996Z,18.80
2019-05-01T15:28:42.103Z,19.77
2019-05-01T15:31:11.337Z,71.03
2019-05-01T15:33:40.409Z,18.80
2019-05-01T15:36:09.647Z,25.27
2019-05-01T15:38:46.642Z,19.40
2019-05-01T15:41:44.004Z,19.20
2019-05-01T15:44:25.459Z,19.90
2019-05-01T15:46:54.555Z,19.60
2019-05-01T15:49:23.664Z,19.93
2019-05-01T15:51:52.873Z,21.27
2019-05-01T15:54:22.035Z,13.00
2019-05-01T15:56:52.390Z,17.40
2019-05-01T15:59:21.482Z,18.60
2019-05-01T16:01:51.577Z,17.60
2019-05-01T16:04:20.611Z,18.80
2019-05-01T16:06:50.646Z,19.13
2019-05-01T16:09:21.950Z,17.30
2019-05-01T16:12:12.117Z,20.50
2019-05-01T16:14:42.468Z,16.97
2019-05-01T16:17:11.707Z,19.50
2019-05-01T16:19:44.016Z,19.83
2019-05-01T16:22:13.279Z,20.77
2019-05-01T16:24:42.459Z,20.70
2019-05-01T16:27:11.949Z,20.23
2019-05-01T16:29:41.847Z,17.63
2019-05-01T16:32:14.316Z,17.87
2019-05-01T16:34:48.033Z,17.83
2019-05-01T16:37:17.318Z,16.37
2019-05-01T16:40:05.140Z,18.27
2019-05-01T16:42:43.420Z,17.17
2019-05-01T16:45:13.987Z,12.30
2019-05-01T16:47:44.476Z,21.80
2019-05-01T16:50:14.996Z,22.53
2019-05-01T16:52:44.596Z,18.17
2019-05-01T16:55:14.080Z,23.43
2019-05-01T16:57:44.068Z,17.57
2019-05-01T17:00:15.633Z,20.80
2019-05-01T17:03:02.562Z,27.00
2019-05-01T17:05:56.230Z,50.80
2019-05-01T17:08:40.255Z,57.40
2019-05-01T17:11:10.568Z,29.53
2019-05-01T17:13:39.770Z,19.03
2019-05-01T17:16:09.037Z,18.10
2019-05-01T17:18:38.221Z,20.87
2019-05-01T17:21:07.486Z,19.40
2019-05-01T17:23:36.720Z,18.70
2019-05-01T17:26:05.892Z,18.30
2019-05-01T17:28:35.100Z,19.10
2019-05-01T17:31:05.552Z,19.53
2019-05-01T17:33:34.727Z,29.20
2019-05-01T17:36:03.968Z,30.97
2019-05-01T17:38:33.047Z,31.20
2019-05-01T17:41:02.414Z,23.10
2019-05-01T17:43:31.600Z,19.90
2019-05-01T17:46:00.812Z,21.80
2019-05-01T17:48:33.652Z,21.07
2019-05-01T17:51:01.947Z,20.87
2019-05-01T17:53:31.285Z,22.47
2019-05-01T17:56:00.476Z,22.53
2019-05-01T17:58:29.499Z,16.67
2019-05-01T18:01:27.567Z,32.73
2019-05-01T18:04:19.052Z,20.50
2019-05-01T18:06:49.928Z,24.77
2019-05-01T18:09:19.131Z,20.93
2019-05-01T18:11:52.320Z,20.20
2019-05-01T18:14:19.128Z,19.23
2019-05-01T18:16:48.315Z,18.30
2019-05-01T18:19:17.463Z,21.60
2019-05-01T18:21:51.691Z,24.90
2019-05-01T18:24:45.803Z,25.83
2019-05-01T18:27:32.846Z,27.30
2019-05-01T18:30:06.159Z,27.83
2019-05-01T18:32:41.511Z,25.40
2019-05-01T18:35:14.099Z,29.20
2019-05-01T18:37:47.763Z,25.90
2019-05-01T18:40:23.488Z,40.20
2019-05-01T18:42:52.650Z,43.40
2019-05-01T18:45:47.517Z,33.00
2019-05-01T18:48:17.160Z,21.97
2019-05-01T18:50:49.511Z,20.17
2019-05-01T18:53:17.419Z,19.87
2019-05-01T18:55:46.595Z,18.30
2019-05-01T18:58:15.812Z,17.70
2019-05-01T19:00:45.110Z,17.90
2019-05-01T19:03:14.211Z,17.17
2019-05-01T19:05:46.865Z,18.93
2019-05-01T19:08:14.203Z,17.73
2019-05-01T19:10:43.306Z,18.20
2019-05-01T19:13:13.382Z,18.50
2019-05-01T19:15:42.753Z,18.53
2019-05-01T19:18:11.934Z,19.20
2019-05-01T19:20:41.046Z,19.73
2019-05-01T19:23:10.916Z,19.77
2019-05-01T19:25:40.347Z,17.53
2019-05-01T19:28:09.549Z,18.57
2019-05-01T19:30:38.743Z,20.53
2019-05-01T19:33:07.942Z,20.10
2019-05-01T19:35:37.032Z,20.43
2019-05-01T19:38:06.412Z,20.10
2019-05-01T19:40:35.619Z,20.10
2019-05-01T19:43:04.763Z,19.83
2019-05-01T19:45:33.931Z,18.27
2019-05-01T19:48:03.089Z,20.17
2019-05-01T19:50:32.148Z,18.80
2019-05-01T19:53:01.295Z,19.17
2019-05-01T19:55:30.471Z,19.07
2019-05-01T19:57:59.684Z,19.20
2019-05-01T20:01:12.008Z,18.97
2019-05-01T20:03:41.246Z,18.83
2019-05-01T20:06:10.319Z,19.60
2019-05-01T20:08:39.463Z,20.27
2019-05-01T20:11:09.768Z,20.93
2019-05-01T20:13:39.050Z,18.97
2019-05-01T20:16:09.144Z,20.03
2019-05-01T20:18:38.309Z,18.60
2019-05-01T20:21:07.967Z,22.50
2019-05-01T20:23:37.052Z,20.53
2019-05-01T20:26:06.234Z,20.10
2019-05-01T20:28:37.214Z,21.60
2019-05-01T20:31:06.133Z,18.80
2019-05-01T20:33:38.658Z,21.60
2019-05-01T20:36:06.664Z,20.77
2019-05-01T20:38:35.855Z,20.20
2019-05-01T20:41:05.068Z,20.53
2019-05-01T20:43:38.119Z,20.27
2019-05-01T20:46:06.944Z,20.80
2019-05-01T20:48:35.899Z,20.37
2019-05-01T20:51:05.066Z,20.77
2019-05-01T20:53:34.120Z,20.60
2019-05-01T20:56:22.351Z,17.90
2019-05-01T20:58:51.491Z,19.80
2019-05-01T21:01:24.274Z,20.00
2019-05-01T21:04:25.524Z,20.20
2019-05-01T21:07:15.481Z,20.70
2019-05-01T21:09:47.863Z,21.53
2019-05-01T21:12:15.980Z,21.57
2019-05-01T21:14:49.392Z,20.00
2019-05-01T21:17:15.964Z,22.57
2019-05-01T21:19:44.987Z,22.43
2019-05-01T21:22:14.508Z,22.33
2019-05-01T21:24:44.338Z,21.07
2019-05-01T21:27:13.773Z,21.00
2019-05-01T21:29:44.518Z,20.17
2019-05-01T21:32:13.770Z,19.00
2019-05-01T21:34:43.509Z,22.40
2019-05-01T21:37:12.803Z,21.73
2019-05-01T21:39:43.675Z,22.57
2019-05-01T21:42:15.961Z,23.50
2019-05-01T21:44:43.843Z,21.87
2019-05-01T21:47:13.927Z,20.50
2019-05-01T21:49:43.262Z,20.87
2019-05-01T21:52:13.480Z,21.67
2019-05-01T21:54:42.951Z,20.80
2019-05-01T21:57:17.237Z,22.20
2019-05-01T21:59:44.838Z,21.87
2019-05-01T22:02:13.725Z,25.00
2019-05-01T22:04:42.873Z,21.67
2019-05-01T22:07:12.030Z,22.40
2019-05-01T22:09:45.518Z,21.90
2019-05-01T22:12:12.988Z,22.87
2019-05-01T22:14:55.738Z,24.30
2019-05-01T22:17:33.413Z,22.30
2019-05-01T22:20:02.882Z,23.47
2019-05-01T22:22:45.942Z,23.33
2019-05-01T22:25:25.150Z,23.90
2019-05-01T22:28:00.610Z,25.63
2019-05-01T22:30:42.275Z,24.67
2019-05-01T22:33:10.500Z,23.53
2019-05-01T22:35:43.256Z,24.87
2019-05-01T22:38:12.437Z,24.97
2019-05-01T22:41:06.994Z,24.07
2019-05-01T22:43:34.697Z,23.90
2019-05-01T22:46:05.022Z,25.27
2019-05-01T22:48:34.276Z,26.07
2019-05-01T22:51:10.415Z,24.13
2019-05-01T22:53:39.618Z,27.70
2019-05-01T22:56:08.707Z,27.43
2019-05-01T22:58:37.746Z,27.40
2019-05-01T23:01:07.136Z,27.47
2019-05-01T23:03:45.292Z,26.70
2019-05-01T23:06:14.607Z,26.40
2019-05-01T23:08:43.756Z,25.50
2019-05-01T23:11:19.637Z,27.50
2019-05-01T23:13:43.912Z,27.77
2019-05-01T23:16:13.450Z,28.20
2019-05-01T23:18:42.587Z,28.67
2019-05-01T23:21:14.647Z,28.80
2019-05-01T23:23:42.456Z,31.43
2019-05-01T23:26:16.018Z,27.73
2019-05-01T23:28:42.411Z,26.77
2019-05-01T23:31:11.773Z,27.80
2019-05-01T23:33:40.886Z,26.63
2019-05-01T23:36:22.365Z,27.93
2019-05-01T23:38:40.984Z,26.10
2019-05-01T23:41:10.115Z,28.80
2019-05-01T23:43:39.212Z,28.23
2019-05-01T23:46:08.424Z,28.57
2019-05-01T23:48:37.458Z,27.50
2019-05-01T23:51:06.535Z,28.00
2019-05-01T23:53:36.261Z,27.20
2019-05-01T23:56:05.410Z,29.50
2019-05-01T23:58:34.490Z,29.87
